createdAt,value
2019-03-20T00:00:57.165Z,79.55
2019-03-20T00:03:27.670Z,80.25
2019-03-20T00:05:58.208Z,80.73
2019-03-20T00:08:28.751Z,80.23
2019-03-20T00:10:59.301Z,79.70
2019-03-20T00:13:30.109Z,80.11
2019-03-20T00:16:00.655Z,79.62
2019-03-20T00:18:31.198Z,79.73
2019-03-20T00:21:01.741Z,79.23
2019-03-20T00:23:32.296Z,80.35
2019-03-20T00:26:03.097Z,80.31
2019-03-20T00:28:33.430Z,81.06
2019-03-20T00:31:03.769Z,81.11
2019-03-20T00:33:34.406Z,81.89
2019-03-20T00:36:05.260Z,82.40
2019-03-20T00:38:35.594Z,81.69
2019-03-20T00:41:05.939Z,81.39
2019-03-20T00:43:36.270Z,80.66
2019-03-20T00:46:06.613Z,80.16
2019-03-20T00:48:36.953Z,79.60
2019-03-20T00:51:07.291Z,78.87
2019-03-20T00:53:38.025Z,79.13
2019-03-20T00:56:08.360Z,78.52
2019-03-20T00:58:39.762Z,78.84
2019-03-20T01:01:10.583Z,79.69
2019-03-20T01:03:40.918Z,79.87
2019-03-20T01:06:11.262Z,81.07
2019-03-20T01:08:41.599Z,81.28
2019-03-20T01:11:11.942Z,80.77
2019-03-20T01:13:43.877Z,79.23
2019-03-20T01:16:14.217Z,79.20
2019-03-20T01:18:44.553Z,79.06
2019-03-20T01:21:15.094Z,79.20
2019-03-20T01:23:45.437Z,80.80
2019-03-20T01:26:15.782Z,80.89
2019-03-20T01:28:46.119Z,81.32
2019-03-20T01:31:16.455Z,80.87
2019-03-20T01:33:46.876Z,80.29
2019-03-20T01:36:17.141Z,81.02
2019-03-20T01:38:47.479Z,80.92
2019-03-20T01:41:17.817Z,81.27
2019-03-20T01:43:48.145Z,81.83
2019-03-20T01:46:19.322Z,81.89
2019-03-20T01:48:50.225Z,81.52
2019-03-20T01:51:21.818Z,81.67
2019-03-20T01:53:52.340Z,82.30
2019-03-20T01:56:22.790Z,81.99
2019-03-20T01:58:53.115Z,81.68
2019-03-20T02:01:23.469Z,80.86
2019-03-20T02:03:54.014Z,79.50
2019-03-20T02:06:24.362Z,79.68
2019-03-20T02:08:54.694Z,79.68
2019-03-20T02:11:25.096Z,80.18
2019-03-20T02:13:55.381Z,79.98
2019-03-20T02:16:25.745Z,79.58
2019-03-20T02:18:56.068Z,79.68
2019-03-20T02:21:26.816Z,79.70
2019-03-20T02:23:57.149Z,79.41
2019-03-20T02:26:27.497Z,79.32
2019-03-20T02:28:57.830Z,78.89
2019-03-20T02:31:28.184Z,79.08
2019-03-20T02:33:58.517Z,79.06
2019-03-20T02:36:28.866Z,78.56
2019-03-20T02:38:59.301Z,78.66
2019-03-20T02:41:31.059Z,79.33
2019-03-20T02:44:02.559Z,79.17
2019-03-20T02:46:32.919Z,78.93
2019-03-20T02:49:05.398Z,79.05
2019-03-20T02:51:35.946Z,79.24
2019-03-20T02:54:06.279Z,78.90
2019-03-20T02:56:36.632Z,78.77
2019-03-20T02:59:07.041Z,79.18
2019-03-20T03:01:37.406Z,79.44
2019-03-20T03:04:07.728Z,80.04
2019-03-20T03:06:38.079Z,80.79
2019-03-20T03:09:08.579Z,80.83
2019-03-20T03:11:38.927Z,81.42
2019-03-20T03:14:09.259Z,81.20
2019-03-20T03:16:39.610Z,80.54
2019-03-20T03:19:09.935Z,80.13
2019-03-20T03:21:40.288Z,79.57
2019-03-20T03:24:10.622Z,79.30
2019-03-20T03:26:40.964Z,79.19
2019-03-20T03:29:11.293Z,78.81
2019-03-20T03:31:41.662Z,79.62
2019-03-20T03:34:11.989Z,79.43
2019-03-20T03:36:42.439Z,79.02
2019-03-20T03:39:12.985Z,79.10
2019-03-20T03:41:43.337Z,79.26
2019-03-20T03:44:13.664Z,79.12
2019-03-20T03:46:44.227Z,79.35
2019-03-20T03:49:15.649Z,78.90
2019-03-20T03:51:46.202Z,78.85
2019-03-20T03:54:16.542Z,78.95
2019-03-20T03:56:46.899Z,79.29
2019-03-20T03:59:17.237Z,79.17
2019-03-20T04:01:47.581Z,78.70
2019-03-20T04:04:17.925Z,78.70
2019-03-20T04:06:48.257Z,78.90
2019-03-20T04:09:18.625Z,80.44
2019-03-20T04:11:48.942Z,80.48
2019-03-20T04:14:19.306Z,80.83
2019-03-20T04:16:49.637Z,81.13
2019-03-20T04:19:20.171Z,81.71
2019-03-20T04:21:50.525Z,81.88
2019-03-20T04:24:20.851Z,81.85
2019-03-20T04:26:51.205Z,81.39
2019-03-20T04:29:21.550Z,80.76
2019-03-20T04:31:51.892Z,79.75
2019-03-20T04:34:22.231Z,79.78
2019-03-20T04:36:52.585Z,79.33
2019-03-20T04:39:22.918Z,79.48
2019-03-20T04:41:53.285Z,79.46
2019-03-20T04:44:23.618Z,79.15
2019-03-20T04:46:53.902Z,78.84
2019-03-20T04:49:25.289Z,79.27
2019-03-20T04:51:55.644Z,79.24
2019-03-20T04:54:25.972Z,78.99
2019-03-20T04:56:56.326Z,80.07
2019-03-20T04:59:26.666Z,79.98
2019-03-20T05:01:57.156Z,79.35
2019-03-20T05:04:28.311Z,79.11
2019-03-20T05:07:01.164Z,79.24
2019-03-20T05:09:31.673Z,78.69
2019-03-20T05:12:03.153Z,79.12
2019-03-20T05:14:33.653Z,79.49
2019-03-20T05:17:04.229Z,79.13
2019-03-20T05:19:34.549Z,78.47
2019-03-20T05:22:06.214Z,77.97
2019-03-20T05:24:36.699Z,77.54
2019-03-20T05:27:08.510Z,77.10
2019-03-20T05:29:39.970Z,76.91
2019-03-20T05:32:10.976Z,76.99
2019-03-20T05:34:44.808Z,77.17
2019-03-20T05:37:16.438Z,77.35
2019-03-20T05:39:49.304Z,77.41
2019-03-20T05:42:19.657Z,77.51
2019-03-20T05:44:49.992Z,77.08
2019-03-20T05:47:20.415Z,76.21
2019-03-20T05:49:50.916Z,75.58
2019-03-20T05:52:21.471Z,75.78
2019-03-20T05:54:51.807Z,75.47
2019-03-20T05:57:22.195Z,74.57
2019-03-20T05:59:52.529Z,61.25
2019-03-20T06:02:25.644Z,61.25
2019-03-20T06:04:55.312Z,56.24
2019-03-20T06:07:25.669Z,51.41
2019-03-20T06:09:57.632Z,49.80
2019-03-20T06:12:27.986Z,47.47
2019-03-20T06:14:58.371Z,44.81
2019-03-20T06:17:28.936Z,42.22
2019-03-20T06:19:59.587Z,41.47
2019-03-20T06:22:30.635Z,39.42
2019-03-20T06:25:00.979Z,39.70
2019-03-20T06:27:31.329Z,36.77
2019-03-20T06:30:04.450Z,37.87
2019-03-20T06:32:34.891Z,36.84
2019-03-20T06:35:07.275Z,34.91
2019-03-20T06:37:38.589Z,35.25
2019-03-20T06:40:11.922Z,33.37
2019-03-20T06:42:42.261Z,32.98
2019-03-20T06:45:19.214Z,32.59
2019-03-20T06:47:49.550Z,31.37
2019-03-20T06:50:22.819Z,30.87
2019-03-20T06:52:53.173Z,29.87
2019-03-20T06:55:23.805Z,29.65
2019-03-20T06:57:54.157Z,29.28
2019-03-20T07:00:49.009Z,28.92
2019-03-20T07:03:22.627Z,29.10
2019-03-20T07:06:11.044Z,28.43
2019-03-20T07:08:44.651Z,28.18
2019-03-20T07:11:14.620Z,28.71
2019-03-20T07:13:44.980Z,28.56
2019-03-20T07:16:15.312Z,28.15
2019-03-20T07:18:45.863Z,28.84
2019-03-20T07:21:18.632Z,29.56
2019-03-20T07:23:48.452Z,29.63
2019-03-20T07:26:18.781Z,30.05
2019-03-20T07:28:49.163Z,29.36
2019-03-20T07:31:19.501Z,28.40
2019-03-20T07:33:49.853Z,28.38
2019-03-20T07:36:20.181Z,28.41
2019-03-20T07:38:50.533Z,28.79
2019-03-20T07:41:20.873Z,29.65
2019-03-20T07:43:51.228Z,29.63
2019-03-20T07:46:21.663Z,29.79
2019-03-20T07:48:52.030Z,30.08
2019-03-20T07:51:22.461Z,28.87
2019-03-20T07:53:52.915Z,29.99
2019-03-20T07:56:23.249Z,29.60
2019-03-20T07:58:53.605Z,28.24
2019-03-20T08:01:24.246Z,29.54
2019-03-20T08:03:54.613Z,29.15
2019-03-20T08:06:24.942Z,27.99
2019-03-20T08:08:55.296Z,28.30
2019-03-20T08:11:25.735Z,28.24
2019-03-20T08:13:57.548Z,27.40
2019-03-20T08:16:27.980Z,27.00
2019-03-20T08:18:58.555Z,27.73
2019-03-20T08:21:28.881Z,28.75
2019-03-20T08:23:59.345Z,29.81
2019-03-20T08:26:29.876Z,28.55
2019-03-20T08:29:00.429Z,28.82
2019-03-20T08:31:30.774Z,28.92
2019-03-20T08:34:01.115Z,28.76
2019-03-20T08:36:31.456Z,29.45
2019-03-20T08:39:01.805Z,29.35
2019-03-20T08:41:33.935Z,30.11
2019-03-20T08:44:04.306Z,28.92
2019-03-20T08:46:34.637Z,30.80
2019-03-20T08:49:05.230Z,34.19
2019-03-20T08:51:36.332Z,36.85
2019-03-20T08:54:06.904Z,39.90
2019-03-20T08:56:37.615Z,40.87
2019-03-20T08:59:07.959Z,42.28
2019-03-20T09:01:38.298Z,43.08
2019-03-20T09:04:08.726Z,44.67
2019-03-20T09:06:39.557Z,45.08
2019-03-20T09:09:09.915Z,45.40
2019-03-20T09:11:40.245Z,45.30
2019-03-20T09:14:10.570Z,44.80
2019-03-20T09:16:40.946Z,46.78
2019-03-20T09:19:11.293Z,46.22
2019-03-20T09:21:41.623Z,45.90
2019-03-20T09:24:13.712Z,46.43
2019-03-20T09:26:44.061Z,45.66
2019-03-20T09:29:18.813Z,45.58
2019-03-20T09:31:46.688Z,44.71
2019-03-20T09:34:17.011Z,44.86
2019-03-20T09:36:47.418Z,46.16
2019-03-20T09:39:17.952Z,44.70
2019-03-20T09:41:48.305Z,45.63
2019-03-20T09:44:18.631Z,44.73
2019-03-20T09:46:48.974Z,43.01
2019-03-20T09:49:19.324Z,40.48
2019-03-20T09:51:50.592Z,39.65
2019-03-20T09:54:20.932Z,41.67
2019-03-20T09:56:51.273Z,43.28
2019-03-20T09:59:21.604Z,40.49
2019-03-20T10:01:51.959Z,39.61
2019-03-20T10:04:22.295Z,39.28
2019-03-20T10:06:52.630Z,41.00
2019-03-20T10:09:22.963Z,41.81
2019-03-20T10:11:53.306Z,41.87
2019-03-20T10:14:23.650Z,41.64
2019-03-20T10:16:55.258Z,41.10
2019-03-20T10:19:25.789Z,40.53
2019-03-20T10:21:56.336Z,41.56
2019-03-20T10:24:26.657Z,40.72
2019-03-20T10:26:58.163Z,40.79
2019-03-20T10:29:28.486Z,36.87
2019-03-20T10:31:58.849Z,39.06
2019-03-20T10:34:39.009Z,39.33
2019-03-20T10:37:01.327Z,42.31
2019-03-20T10:39:33.713Z,41.13
2019-03-20T10:42:06.151Z,40.94
2019-03-20T10:44:41.223Z,39.19
2019-03-20T10:47:11.975Z,39.30
2019-03-20T10:49:44.450Z,38.57
2019-03-20T10:52:16.027Z,37.15
2019-03-20T10:54:47.661Z,36.77
2019-03-20T10:57:23.942Z,36.77
2019-03-20T11:00:01.602Z,35.98
2019-03-20T11:02:34.913Z,36.06
2019-03-20T11:05:07.073Z,35.23
2019-03-20T11:07:37.504Z,35.96
2019-03-20T11:10:11.225Z,36.22
2019-03-20T11:12:41.980Z,36.19
2019-03-20T11:15:14.749Z,36.10
2019-03-20T11:17:47.334Z,37.07
2019-03-20T11:20:18.871Z,38.05
2019-03-20T11:22:49.966Z,37.39
2019-03-20T11:25:31.312Z,38.44
2019-03-20T11:28:01.707Z,38.17
2019-03-20T11:30:34.496Z,37.86
2019-03-20T11:33:06.381Z,38.17
2019-03-20T11:35:45.487Z,37.94
2019-03-20T11:38:16.435Z,38.54
2019-03-20T11:40:51.227Z,37.67
2019-03-20T11:43:25.941Z,37.93
2019-03-20T11:45:58.454Z,37.60
2019-03-20T11:48:28.983Z,37.91
2019-03-20T11:51:02.444Z,37.47
2019-03-20T11:53:35.557Z,38.59
2019-03-20T11:56:08.654Z,38.48
2019-03-20T11:58:42.129Z,38.29
2019-03-20T12:01:22.507Z,39.13
2019-03-20T12:03:53.099Z,37.00
2019-03-20T12:06:28.186Z,38.53
2019-03-20T12:08:58.714Z,38.28
2019-03-20T12:11:45.175Z,38.95
2019-03-20T12:14:14.431Z,39.00
2019-03-20T12:16:48.509Z,39.36
2019-03-20T12:19:18.973Z,39.31
2019-03-20T12:21:53.030Z,38.36
2019-03-20T12:24:27.391Z,38.83
2019-03-20T12:26:57.965Z,38.15
2019-03-20T12:29:30.317Z,37.57
2019-03-20T12:32:07.368Z,38.01
2019-03-20T12:34:39.641Z,38.85
2019-03-20T12:37:10.179Z,38.07
2019-03-20T12:39:52.812Z,37.98
2019-03-20T12:42:19.661Z,38.01
2019-03-20T12:44:50.053Z,37.15
2019-03-20T12:47:20.591Z,38.25
2019-03-20T12:49:53.834Z,37.20
2019-03-20T12:52:29.319Z,36.50
2019-03-20T12:54:59.885Z,37.20
2019-03-20T12:57:30.405Z,36.38
2019-03-20T13:00:00.955Z,36.44
2019-03-20T13:02:32.996Z,36.38
2019-03-20T13:05:06.357Z,35.99
2019-03-20T13:07:39.440Z,35.54
2019-03-20T13:10:17.559Z,35.49
2019-03-20T13:12:48.959Z,35.54
2019-03-20T13:15:25.754Z,35.96
2019-03-20T13:17:57.974Z,32.77
2019-03-20T13:20:29.265Z,34.38
2019-03-20T13:23:20.687Z,34.79
2019-03-20T13:25:51.072Z,35.38
2019-03-20T13:28:21.409Z,35.92
2019-03-20T13:31:12.534Z,35.17
2019-03-20T13:33:43.070Z,33.90
2019-03-20T13:36:13.404Z,34.57
2019-03-20T13:38:43.996Z,34.90
2019-03-20T13:41:14.329Z,35.06
2019-03-20T13:43:44.646Z,34.26
2019-03-20T13:46:14.971Z,34.66
2019-03-20T13:48:45.498Z,34.82
2019-03-20T13:51:16.214Z,34.21
2019-03-20T13:53:46.656Z,35.03
2019-03-20T13:56:17.098Z,35.46
2019-03-20T13:58:47.429Z,36.09
2019-03-20T14:01:17.839Z,36.11
2019-03-20T14:03:48.396Z,34.25
2019-03-20T14:06:21.026Z,34.76
2019-03-20T14:09:06.570Z,34.69
2019-03-20T14:11:38.125Z,35.57
2019-03-20T14:14:10.157Z,36.12
2019-03-20T14:16:46.229Z,35.33
2019-03-20T14:19:18.879Z,35.55
2019-03-20T14:21:51.031Z,35.73
2019-03-20T14:24:23.057Z,35.74
2019-03-20T14:26:53.575Z,35.71
2019-03-20T14:29:29.762Z,35.67
2019-03-20T14:32:01.993Z,35.15
2019-03-20T14:34:34.964Z,35.01
2019-03-20T14:37:09.127Z,34.63
2019-03-20T14:39:48.619Z,34.82
2019-03-20T14:42:19.177Z,34.41
2019-03-20T14:44:51.679Z,35.28
2019-03-20T14:47:41.888Z,34.77
2019-03-20T14:50:10.516Z,35.52
2019-03-20T14:52:43.927Z,35.48
2019-03-20T14:55:15.149Z,35.69
2019-03-20T14:57:45.675Z,35.25
2019-03-20T15:00:20.949Z,36.13
2019-03-20T15:02:51.976Z,36.39
2019-03-20T15:05:21.882Z,36.74
2019-03-20T15:07:55.690Z,36.32
2019-03-20T15:10:27.049Z,35.06
2019-03-20T15:12:58.220Z,35.23
2019-03-20T15:15:45.030Z,35.20
2019-03-20T15:18:15.405Z,35.47
2019-03-20T15:20:47.212Z,35.71
2019-03-20T15:23:19.235Z,35.60
2019-03-20T15:25:49.784Z,35.40
2019-03-20T15:28:20.295Z,35.63
2019-03-20T15:30:50.830Z,35.91
2019-03-20T15:33:21.390Z,35.97
2019-03-20T15:35:54.447Z,35.83
2019-03-20T15:38:27.066Z,35.67
2019-03-20T15:40:59.252Z,36.21
2019-03-20T15:43:34.601Z,37.01
2019-03-20T15:46:09.283Z,37.44
2019-03-20T15:48:47.501Z,37.78
2019-03-20T15:51:28.268Z,38.06
2019-03-20T15:53:58.855Z,38.16
2019-03-20T15:56:29.313Z,37.99
2019-03-20T15:58:59.875Z,38.11
2019-03-20T16:01:31.630Z,38.58
2019-03-20T16:04:02.593Z,38.38
2019-03-20T16:06:34.193Z,38.46
2019-03-20T16:09:07.640Z,39.19
2019-03-20T16:11:38.033Z,39.97
2019-03-20T16:14:08.884Z,39.16
2019-03-20T16:16:39.408Z,39.39
2019-03-20T16:19:09.912Z,39.46
2019-03-20T16:21:41.368Z,40.54
2019-03-20T16:24:11.898Z,40.72
2019-03-20T16:26:42.732Z,41.01
2019-03-20T16:29:13.370Z,41.15
2019-03-20T16:31:44.419Z,41.38
2019-03-20T16:34:15.996Z,41.97
2019-03-20T16:36:46.396Z,42.30
2019-03-20T16:39:17.884Z,42.23
2019-03-20T16:42:13.587Z,42.82
2019-03-20T16:44:46.634Z,43.32
2019-03-20T16:47:17.105Z,43.41
2019-03-20T16:49:47.627Z,44.37
2019-03-20T16:52:18.147Z,44.21
2019-03-20T16:54:48.652Z,44.83
2019-03-20T16:57:24.065Z,44.48
2019-03-20T17:00:03.037Z,45.09
2019-03-20T17:03:11.977Z,44.63
2019-03-20T17:05:46.500Z,45.19
2019-03-20T17:08:26.987Z,45.13
2019-03-20T17:10:58.865Z,45.28
2019-03-20T17:13:31.030Z,45.12
2019-03-20T17:16:11.229Z,45.90
2019-03-20T17:18:41.999Z,45.53
2019-03-20T17:21:20.287Z,45.71
2019-03-20T17:24:07.509Z,45.70
2019-03-20T17:26:38.134Z,45.76
2019-03-20T17:29:09.504Z,46.58
2019-03-20T17:31:41.099Z,46.32
2019-03-20T17:34:20.590Z,46.34
2019-03-20T17:36:59.631Z,46.13
2019-03-20T17:39:31.167Z,46.47
2019-03-20T17:42:02.618Z,46.55
2019-03-20T17:44:33.152Z,46.51
2019-03-20T17:47:08.126Z,46.78
2019-03-20T17:49:38.557Z,46.76
2019-03-20T17:52:09.048Z,46.59
2019-03-20T17:54:40.169Z,46.98
2019-03-20T17:57:15.490Z,46.83
2019-03-20T17:59:49.703Z,47.24
2019-03-20T18:02:24.358Z,47.73
2019-03-20T18:04:53.681Z,48.11
2019-03-20T19:24:37.097Z,58.19
